Time;durP1;ratioP1;P1;durP2;ratioP2;P2;SDS_P1;SDS_P2;PMS_P1;PMS_P2;Temp;Humidity;BMP_temperature;BMP_pressure;BME280_temperature;BME280_humidity;BME280_pressure;Samples;Min_cycle;Max_cycle;Signal;HPM_P1;HPM_P2
2022/04/30 00:00:18;;;;;;;10.45;6.22;;;;;;;;;;4936669;29;20040;-87
2022/04/30 00:02:44;;;;;;;10.82;5.90;;;;;;;;;;4936707;29;20601;-86
2022/04/30 00:05:11;;;;;;;10.30;6.28;;;;;;;;;;4936781;29;20122;-87
2022/04/30 00:07:37;;;;;;;9.75;5.72;;;;;;;;;;4937992;29;20060;-86
2022/04/30 00:10:04;;;;;;;10.30;5.25;;;;;;;;;;4943384;29;20019;-87
2022/04/30 00:12:31;;;;;;;13.38;6.28;;;;;;;;;;4936798;29;20043;-87
2022/04/30 00:14:57;;;;;;;8.38;5.50;;;;;;;;;;4936514;29;20020;-86
2022/04/30 00:17:24;;;;;;;11.25;6.72;;;;;;;;;;4936830;29;20083;-84
2022/04/30 00:19:50;;;;;;;12.55;6.32;;;;;;;;;;4936639;29;20036;-86
2022/04/30 00:22:16;;;;;;;10.77;5.72;;;;;;;;;;4936524;29;20114;-86
2022/04/30 00:24:43;;;;;;;14.48;7.05;;;;;;;;;;4936412;29;20031;-82
2022/04/30 00:27:10;;;;;;;10.50;6.38;;;;;;;;;;4936484;29;20104;-86
2022/04/30 00:29:39;;;;;;;15.05;7.35;;;;;;;;;;4936374;29;20063;-83
2022/04/30 00:32:06;;;;;;;15.93;8.07;;;;;;;;;;4936534;29;20024;-85
2022/04/30 00:34:32;;;;;;;16.30;7.93;;;;;;;;;;4936277;29;20036;-87
2022/04/30 00:37:02;;;;;;;16.95;7.88;;;;;;;;;;4936301;29;20114;-87
2022/04/30 00:39:30;;;;;;;17.15;8.73;;;;;;;;;;4938541;29;20396;-85
2022/04/30 00:41:56;;;;;;;18.27;8.02;;;;;;;;;;4936299;29;20028;-86
2022/04/30 00:44:22;;;;;;;19.98;9.50;;;;;;;;;;4936396;29;20023;-86
2022/04/30 00:46:48;;;;;;;18.05;8.30;;;;;;;;;;4937604;29;20031;-86
2022/04/30 00:49:14;;;;;;;20.30;9.10;;;;;;;;;;4936076;29;20059;-85
2022/04/30 00:51:43;;;;;;;16.40;8.88;;;;;;;;;;4936019;29;20424;-84
2022/04/30 00:54:10;;;;;;;17.15;8.80;;;;;;;;;;4936098;29;20032;-86
2022/04/30 00:56:37;;;;;;;18.20;8.60;;;;;;;;;;4936153;29;20047;-86
2022/04/30 00:59:05;;;;;;;19.63;10.55;;;;;;;;;;4935888;29;20071;-85
2022/04/30 01:01:36;;;;;;;18.83;10.40;;;;;;;;;;4935813;29;20055;-85
2022/04/30 01:04:03;;;;;;;20.67;10.40;;;;;;;;;;4935956;29;20031;-86
2022/04/30 01:06:49;;;;;;;19.58;9.40;;;;;;;;;;4935862;29;20052;-86
2022/04/30 01:09:17;;;;;;;16.45;8.60;;;;;;;;;;4936008;29;20023;-85
2022/04/30 01:11:47;;;;;;;15.85;8.15;;;;;;;;;;4936117;29;20024;-86
2022/04/30 01:14:13;;;;;;;11.70;7.28;;;;;;;;;;4936280;29;20510;-84
2022/04/30 01:16:40;;;;;;;13.32;7.53;;;;;;;;;;4941551;29;20038;-86
2022/04/30 01:19:07;;;;;;;12.70;7.25;;;;;;;;;;4936966;29;20028;-85
2022/04/30 01:21:35;;;;;;;14.32;8.07;;;;;;;;;;4939702;29;20031;-87
2022/04/30 01:24:02;;;;;;;13.45;7.93;;;;;;;;;;4940877;29;20031;-86
2022/04/30 01:26:28;;;;;;;12.23;7.32;;;;;;;;;;4939712;29;20020;-84
2022/04/30 01:28:54;;;;;;;13.68;7.80;;;;;;;;;;4939705;29;20043;-87
2022/04/30 01:39:35;;;;;;;10.55;7.10;;;;;;;;;;4940631;29;20552;-87
2022/04/30 01:42:13;;;;;;;11.05;6.28;;;;;;;;;;4939488;29;20042;-86
2022/04/30 01:44:46;;;;;;;11.13;6.40;;;;;;;;;;4939628;29;20028;-83
2022/04/30 01:47:14;;;;;;;9.40;6.70;;;;;;;;;;4943557;29;20496;-87
2022/04/30 01:49:40;;;;;;;14.85;7.18;;;;;;;;;;4939163;29;20385;-85
2022/04/30 01:52:07;;;;;;;14.75;7.13;;;;;;;;;;4939212;29;20020;-86
2022/04/30 01:54:33;;;;;;;10.85;6.93;;;;;;;;;;4939112;29;20107;-87
2022/04/30 01:56:59;;;;;;;14.77;7.47;;;;;;;;;;4939106;29;20032;-86
2022/04/30 01:59:25;;;;;;;13.75;7.10;;;;;;;;;;4939173;29;20517;-83
2022/04/30 02:01:52;;;;;;;8.60;5.50;;;;;;;;;;4938682;29;20063;-86
2022/04/30 02:04:19;;;;;;;10.35;6.10;;;;;;;;;;4938869;29;20515;-87
2022/04/30 02:06:46;;;;;;;11.27;6.07;;;;;;;;;;4938939;29;20024;-87
2022/04/30 02:09:14;;;;;;;9.38;6.03;;;;;;;;;;4938895;29;20161;-84
2022/04/30 02:11:42;;;;;;;17.50;7.22;;;;;;;;;;4939227;29;20476;-87
2022/04/30 02:14:08;;;;;;;14.00;6.55;;;;;;;;;;4940348;29;20024;-86
2022/04/30 02:16:35;;;;;;;16.00;7.10;;;;;;;;;;4939096;29;20547;-86
2022/04/30 02:19:02;;;;;;;11.68;6.90;;;;;;;;;;4946918;29;20038;-86
2022/04/30 02:21:29;;;;;;;17.98;8.80;;;;;;;;;;4939735;29;20103;-87
2022/04/30 02:23:58;;;;;;;21.38;10.45;;;;;;;;;;4938718;29;20079;-87
2022/04/30 02:26:27;;;;;;;14.95;8.60;;;;;;;;;;4938613;29;20565;-85
2022/04/30 02:28:57;;;;;;;15.38;8.38;;;;;;;;;;4938536;29;20546;-86
2022/04/30 02:31:23;;;;;;;17.73;8.43;;;;;;;;;;4938489;29;20126;-86
2022/04/30 02:33:49;;;;;;;15.93;8.48;;;;;;;;;;4938420;29;20028;-81
2022/04/30 02:36:16;;;;;;;16.02;8.52;;;;;;;;;;4938392;29;20384;-82
2022/04/30 02:38:42;;;;;;;12.82;7.90;;;;;;;;;;4938624;29;20035;-87
2022/04/30 02:41:09;;;;;;;16.98;8.05;;;;;;;;;;4938586;29;20050;-86
2022/04/30 02:43:35;;;;;;;16.55;7.38;;;;;;;;;;4938266;29;20024;-86
2022/04/30 02:46:01;;;;;;;12.45;7.00;;;;;;;;;;4938319;29;20039;-87
2022/04/30 02:48:27;;;;;;;10.52;6.70;;;;;;;;;;4939908;29;20059;-87
2022/04/30 02:51:00;;;;;;;11.40;6.78;;;;;;;;;;4938404;29;20078;-86
2022/04/30 02:53:26;;;;;;;13.53;7.50;;;;;;;;;;4939918;29;20028;-85
2022/04/30 02:55:53;;;;;;;17.20;8.38;;;;;;;;;;4938050;29;20039;-87
2022/04/30 03:01:05;;;;;;;14.40;8.35;;;;;;;;;;4938969;29;20471;-86
2022/04/30 03:03:32;;;;;;;14.52;7.70;;;;;;;;;;4922274;29;20032;-85
2022/04/30 03:05:58;;;;;;;15.77;8.00;;;;;;;;;;4922282;29;20063;-86
2022/04/30 03:08:26;;;;;;;16.92;8.38;;;;;;;;;;4922260;29;20098;-87
2022/04/30 03:10:56;;;;;;;16.52;7.63;;;;;;;;;;4922125;29;20031;-85
2022/04/30 03:13:24;;;;;;;16.00;7.43;;;;;;;;;;4921876;29;20035;-84
2022/04/30 03:15:51;;;;;;;15.27;7.22;;;;;;;;;;4921837;29;20024;-86
2022/04/30 03:23:37;;;;;;;13.02;7.75;;;;;;;;;;4942145;29;20086;-86
2022/04/30 03:26:05;;;;;;;14.50;7.63;;;;;;;;;;4921723;29;20028;-87
2022/04/30 03:28:32;;;;;;;14.93;7.75;;;;;;;;;;4921673;29;20378;-86
2022/04/30 03:30:59;;;;;;;16.75;7.80;;;;;;;;;;4921633;29;20030;-86
2022/04/30 03:33:28;;;;;;;14.27;7.63;;;;;;;;;;4921480;29;20035;-81
2022/04/30 03:35:54;;;;;;;15.07;8.00;;;;;;;;;;4921389;29;20052;-88
2022/04/30 03:38:21;;;;;;;14.48;7.43;;;;;;;;;;4921783;29;20091;-82
2022/04/30 03:40:47;;;;;;;15.85;8.10;;;;;;;;;;4921373;29;20043;-86
2022/04/30 03:43:13;;;;;;;13.60;7.25;;;;;;;;;;4937845;29;20031;-86
2022/04/30 03:45:41;;;;;;;13.25;7.07;;;;;;;;;;4921317;29;20043;-84
2022/04/30 03:48:08;;;;;;;14.05;7.10;;;;;;;;;;4921123;29;20142;-87
2022/04/30 03:50:34;;;;;;;13.98;6.82;;;;;;;;;;4922015;29;20082;-86
2022/04/30 03:53:00;;;;;;;11.93;6.82;;;;;;;;;;4921520;29;20075;-86
2022/04/30 03:55:27;;;;;;;12.20;6.70;;;;;;;;;;4923308;29;20038;-87
2022/04/30 03:57:56;;;;;;;10.95;6.25;;;;;;;;;;4920955;29;20024;-86
2022/04/30 04:00:22;;;;;;;13.88;7.72;;;;;;;;;;4937819;29;20043;-86
2022/04/30 04:02:48;;;;;;;16.00;9.00;;;;;;;;;;4933908;29;20512;-85
2022/04/30 04:05:16;;;;;;;19.73;9.75;;;;;;;;;;4937273;29;20031;-85
2022/04/30 04:07:43;;;;;;;24.08;10.18;;;;;;;;;;4936939;29;20369;-86
2022/04/30 04:10:10;;;;;;;24.50;9.70;;;;;;;;;;4938012;29;20051;-84
2022/04/30 04:12:37;;;;;;;19.08;8.55;;;;;;;;;;4936836;29;20404;-87
2022/04/30 04:17:49;;;;;;;21.30;9.68;;;;;;;;;;4937888;29;20389;-86
2022/04/30 04:20:19;;;;;;;20.98;10.38;;;;;;;;;;4937528;29;20040;-85
2022/04/30 04:22:45;;;;;;;17.83;9.07;;;;;;;;;;4936648;29;20024;-86
2022/04/30 04:27:58;;;;;;;17.33;8.68;;;;;;;;;;4937930;29;20445;-86
2022/04/30 04:30:28;;;;;;;17.33;8.68;;;;;;;;;;4936380;29;20183;-86
2022/04/30 04:32:56;;;;;;;16.65;9.18;;;;;;;;;;4936417;29;20024;-86
2022/04/30 04:35:22;;;;;;;18.02;8.73;;;;;;;;;;4935919;29;20031;-84
2022/04/30 04:37:48;;;;;;;15.90;9.00;;;;;;;;;;4932714;29;20115;-84
2022/04/30 04:40:15;;;;;;;14.73;8.80;;;;;;;;;;4926978;29;20035;-84
2022/04/30 04:42:42;;;;;;;16.60;7.28;;;;;;;;;;4935965;29;20051;-83
2022/04/30 04:45:09;;;;;;;11.40;6.97;;;;;;;;;;4935824;29;20059;-84
2022/04/30 04:47:36;;;;;;;15.85;7.40;;;;;;;;;;4935563;29;20520;-83
2022/04/30 04:50:03;;;;;;;13.77;7.15;;;;;;;;;;4927152;29;20388;-83
2022/04/30 04:52:29;;;;;;;17.08;8.05;;;;;;;;;;4936178;29;20480;-84
2022/04/30 04:54:57;;;;;;;19.60;8.45;;;;;;;;;;4935389;29;20100;-86
2022/04/30 04:57:23;;;;;;;15.40;8.65;;;;;;;;;;4936399;29;20028;-86
2022/04/30 04:59:51;;;;;;;16.08;8.98;;;;;;;;;;4935784;29;20055;-85
2022/04/30 05:02:18;;;;;;;16.35;8.48;;;;;;;;;;4935736;29;20522;-85
2022/04/30 05:04:44;;;;;;;13.75;7.82;;;;;;;;;;4936291;29;20060;-86
2022/04/30 05:07:10;;;;;;;17.40;7.22;;;;;;;;;;4935975;29;20058;-85
2022/04/30 05:09:36;;;;;;;12.23;6.70;;;;;;;;;;4935778;29;20043;-87
2022/04/30 05:12:02;;;;;;;12.75;6.05;;;;;;;;;;4935576;29;20538;-86
2022/04/30 05:14:32;;;;;;;12.25;6.93;;;;;;;;;;4935905;29;20039;-87
2022/04/30 05:16:59;;;;;;;10.25;6.45;;;;;;;;;;4936851;29;20066;-87
2022/04/30 05:19:25;;;;;;;11.23;6.68;;;;;;;;;;4935745;29;20047;-87
2022/04/30 05:21:51;;;;;;;8.82;5.88;;;;;;;;;;4936924;29;20024;-88
2022/04/30 05:24:17;;;;;;;10.40;6.20;;;;;;;;;;4940767;29;20083;-86
2022/04/30 05:26:43;;;;;;;8.13;5.68;;;;;;;;;;4935835;29;20032;-87
2022/04/30 05:29:13;;;;;;;9.40;5.63;;;;;;;;;;4936002;29;20477;-88
2022/04/30 05:31:39;;;;;;;10.18;5.95;;;;;;;;;;4935738;29;20392;-89
2022/04/30 05:34:05;;;;;;;10.57;6.50;;;;;;;;;;4935570;29;20028;-87
2022/04/30 05:36:31;;;;;;;12.52;7.25;;;;;;;;;;4935769;29;20054;-89
2022/04/30 05:38:59;;;;;;;15.30;6.88;;;;;;;;;;4935685;29;20035;-86
2022/04/30 05:41:25;;;;;;;11.02;5.70;;;;;;;;;;4950696;29;20042;-85
2022/04/30 05:43:51;;;;;;;9.00;5.10;;;;;;;;;;4935249;29;20608;-86
2022/04/30 05:46:17;;;;;;;10.15;4.78;;;;;;;;;;4945102;29;20465;-84
2022/04/30 05:48:50;;;;;;;7.47;3.97;;;;;;;;;;4935891;29;20062;-88
2022/04/30 05:51:16;;;;;;;7.93;3.23;;;;;;;;;;4935144;29;20028;-82
2022/04/30 05:53:42;;;;;;;7.95;3.55;;;;;;;;;;4935978;29;20404;-84
2022/04/30 05:56:08;;;;;;;9.65;3.78;;;;;;;;;;4935294;29;20024;-81
2022/04/30 05:58:34;;;;;;;6.47;3.55;;;;;;;;;;4935149;29;20157;-87
2022/04/30 06:01:01;;;;;;;6.80;3.50;;;;;;;;;;4934887;29;20090;-85
2022/04/30 06:03:30;;;;;;;6.95;3.63;;;;;;;;;;4919446;29;20061;-84
2022/04/30 06:05:56;;;;;;;8.98;3.72;;;;;;;;;;4921522;29;20031;-86
2022/04/30 06:08:22;;;;;;;6.13;3.03;;;;;;;;;;4922980;29;20020;-90
2022/04/30 06:10:49;;;;;;;8.15;3.70;;;;;;;;;;4922366;29;20075;-84
2022/04/30 06:13:16;;;;;;;6.30;3.58;;;;;;;;;;4922772;29;20075;-88
2022/04/30 06:15:44;;;;;;;9.18;4.28;;;;;;;;;;4922820;29;20539;-83
2022/04/30 06:18:15;;;;;;;10.00;4.00;;;;;;;;;;4923223;29;20477;-83
2022/04/30 06:20:41;;;;;;;17.50;4.28;;;;;;;;;;4922586;29;20047;-82
2022/04/30 06:23:07;;;;;;;6.60;4.20;;;;;;;;;;4939392;29;20074;-86
2022/04/30 06:25:35;;;;;;;7.30;4.70;;;;;;;;;;4939835;29;20374;-87
2022/04/30 06:28:01;;;;;;;10.00;4.65;;;;;;;;;;4923059;29;20051;-86
2022/04/30 06:30:28;;;;;;;9.65;4.50;;;;;;;;;;4922961;29;20090;-85
2022/04/30 06:32:54;;;;;;;10.52;4.78;;;;;;;;;;4922800;29;20047;-85
2022/04/30 06:35:20;;;;;;;12.57;6.45;;;;;;;;;;4922448;29;20070;-84
2022/04/30 06:37:47;;;;;;;17.48;5.30;;;;;;;;;;4910237;29;20051;-82
2022/04/30 06:40:13;;;;;;;14.20;6.10;;;;;;;;;;4903016;29;20056;-85
2022/04/30 06:42:40;;;;;;;14.43;5.78;;;;;;;;;;4903050;29;20086;-83
2022/04/30 06:45:06;;;;;;;12.65;5.20;;;;;;;;;;4906022;29;20031;-86
2022/04/30 06:47:33;;;;;;;7.47;4.32;;;;;;;;;;4904056;29;20024;-89
2022/04/30 06:49:59;;;;;;;8.23;4.70;;;;;;;;;;4903662;29;20043;-87
2022/04/30 06:52:25;;;;;;;8.82;5.20;;;;;;;;;;4920673;29;20154;-88
2022/04/30 06:57:36;;;;;;;13.07;4.78;;;;;;;;;;4938965;29;20034;-86
2022/04/30 07:01:24;;;;;;;8.43;4.13;;;;;;;;;;4938847;29;20039;-84
2022/04/30 07:02:48;;;;;;;13.90;4.90;;;;;;;;;;4955041;29;20055;-85
2022/04/30 07:05:14;;;;;;;10.95;4.88;;;;;;;;;;4940794;29;20030;-86
2022/04/30 07:07:40;;;;;;;8.07;4.60;;;;;;;;;;4938936;29;20549;-86
2022/04/30 07:10:06;;;;;;;7.82;4.75;;;;;;;;;;4938488;29;20079;-84
2022/04/30 07:12:32;;;;;;;7.95;4.90;;;;;;;;;;4938420;29;20465;-86
2022/04/30 07:14:59;;;;;;;7.68;4.70;;;;;;;;;;4938740;29;20039;-89
2022/04/30 07:17:25;;;;;;;11.98;5.32;;;;;;;;;;4921254;29;20066;-91
2022/04/30 07:19:51;;;;;;;12.73;4.95;;;;;;;;;;4939092;29;20075;-84
2022/04/30 07:22:17;;;;;;;8.18;5.13;;;;;;;;;;4921874;29;20493;-85
2022/04/30 07:24:43;;;;;;;7.65;4.82;;;;;;;;;;4907843;29;20039;-85
2022/04/30 07:27:10;;;;;;;10.38;6.20;;;;;;;;;;4917692;29;20028;-85
2022/04/30 07:29:38;;;;;;;10.98;6.55;;;;;;;;;;4913071;29;20035;-87
2022/04/30 07:32:07;;;;;;;9.40;6.30;;;;;;;;;;4919457;29;20035;-84
2022/04/30 07:34:34;;;;;;;8.80;6.03;;;;;;;;;;4914330;29;20059;-86
2022/04/30 07:37:00;;;;;;;10.02;6.32;;;;;;;;;;4903619;29;20060;-83
2022/04/30 07:39:26;;;;;;;9.63;5.32;;;;;;;;;;4918106;29;20028;-87
2022/04/30 07:41:54;;;;;;;18.85;10.73;;;;;;;;;;4918643;29;20058;-88
2022/04/30 07:44:22;;;;;;;10.02;5.97;;;;;;;;;;4918568;29;20111;-89
2022/04/30 07:46:48;;;;;;;9.02;6.07;;;;;;;;;;4918450;29;20127;-88
2022/04/30 07:49:14;;;;;;;12.00;6.45;;;;;;;;;;4919271;29;20033;-95
2022/04/30 07:51:53;;;;;;;8.55;5.68;;;;;;;;;;4918106;29;20060;-88
2022/04/30 07:54:20;;;;;;;14.55;7.72;;;;;;;;;;4918387;29;20031;-84
2022/04/30 07:56:46;;;;;;;10.65;7.20;;;;;;;;;;4918309;29;20032;-82
2022/04/30 07:59:13;;;;;;;14.00;6.18;;;;;;;;;;4923002;29;20028;-86
2022/04/30 08:01:39;;;;;;;10.80;5.30;;;;;;;;;;4921582;29;20143;-83
2022/04/30 08:04:05;;;;;;;11.82;5.65;;;;;;;;;;4933271;29;20050;-89
2022/04/30 08:06:31;;;;;;;9.23;5.38;;;;;;;;;;4917763;29;20048;-85
2022/04/30 08:08:57;;;;;;;11.10;5.35;;;;;;;;;;4918581;29;20025;-87
2022/04/30 08:11:24;;;;;;;11.98;5.38;;;;;;;;;;4917447;29;20028;-95
2022/04/30 08:13:50;;;;;;;12.52;6.25;;;;;;;;;;4917695;29;20035;-83
2022/04/30 08:16:16;;;;;;;11.60;5.82;;;;;;;;;;4917209;29;20039;-84
2022/04/30 08:18:43;;;;;;;15.70;6.30;;;;;;;;;;4917898;29;20533;-93
2022/04/30 08:21:09;;;;;;;19.63;7.55;;;;;;;;;;4917754;29;20033;-83
2022/04/30 08:23:36;;;;;;;11.20;6.15;;;;;;;;;;4917238;29;20113;-82
2022/04/30 08:26:03;;;;;;;11.07;6.30;;;;;;;;;;4917509;29;20032;-84
2022/04/30 08:28:29;;;;;;;11.95;6.50;;;;;;;;;;4917779;29;20083;-88
2022/04/30 08:30:55;;;;;;;13.77;6.88;;;;;;;;;;4917396;29;20119;-87
2022/04/30 08:33:22;;;;;;;16.05;6.20;;;;;;;;;;4918813;29;20043;-87
2022/04/30 08:35:48;;;;;;;13.27;6.38;;;;;;;;;;4917213;29;20024;-85
2022/04/30 08:38:14;;;;;;;9.75;6.25;;;;;;;;;;4932660;29;20032;-80
2022/04/30 08:40:44;;;;;;;12.38;6.85;;;;;;;;;;4951116;29;20047;-83
2022/04/30 08:43:17;;;;;;;13.77;6.65;;;;;;;;;;4951139;29;20110;-85
2022/04/30 08:45:45;;;;;;;8.65;5.65;;;;;;;;;;4951452;29;20035;-84
2022/04/30 08:48:13;;;;;;;10.43;6.10;;;;;;;;;;4951248;29;20047;-81
2022/04/30 08:50:40;;;;;;;10.98;5.72;;;;;;;;;;4951373;29;20031;-81
2022/04/30 08:53:10;;;;;;;11.55;6.72;;;;;;;;;;4951194;29;20028;-83
2022/04/30 08:55:36;;;;;;;10.68;6.40;;;;;;;;;;4936656;29;20102;-84
2022/04/30 08:58:02;;;;;;;13.40;7.00;;;;;;;;;;4951322;29;20472;-87
2022/04/30 09:00:29;;;;;;;10.73;6.72;;;;;;;;;;4951486;29;20044;-81
2022/04/30 09:02:56;;;;;;;12.38;6.13;;;;;;;;;;4937049;29;20103;-83
2022/04/30 09:05:23;;;;;;;10.75;6.18;;;;;;;;;;4920669;29;20035;-82
2022/04/30 09:07:53;;;;;;;10.05;6.65;;;;;;;;;;4938043;29;20032;-88
2022/04/30 09:10:23;;;;;;;10.07;6.45;;;;;;;;;;4919390;29;20119;-87
2022/04/30 09:12:49;;;;;;;8.55;6.07;;;;;;;;;;4919129;29;20049;-84
2022/04/30 09:15:16;;;;;;;11.95;6.40;;;;;;;;;;4919498;29;20023;-81
2022/04/30 09:17:42;;;;;;;9.57;6.05;;;;;;;;;;4936012;29;20083;-80
2022/04/30 09:20:08;;;;;;;9.02;6.38;;;;;;;;;;4936044;29;20090;-81
2022/04/30 09:22:38;;;;;;;10.40;6.85;;;;;;;;;;4919030;29;20039;-82
2022/04/30 09:25:13;;;;;;;10.70;6.30;;;;;;;;;;4918792;29;20126;-82
2022/04/30 09:27:49;;;;;;;10.25;6.75;;;;;;;;;;4918988;29;20020;-82
2022/04/30 09:30:17;;;;;;;10.00;6.68;;;;;;;;;;4936042;29;20167;-82
2022/04/30 09:32:44;;;;;;;13.48;6.80;;;;;;;;;;4935907;29;20028;-82
2022/04/30 09:38:07;;;;;;;12.00;6.00;;;;;;;;;;4936190;29;20090;-82
2022/04/30 09:40:33;;;;;;;9.85;7.00;;;;;;;;;;4937688;29;20036;-81
2022/04/30 09:43:01;;;;;;;12.50;6.25;;;;;;;;;;4939729;29;20035;-82
2022/04/30 09:45:31;;;;;;;13.23;6.43;;;;;;;;;;4922434;29;20480;-83
2022/04/30 09:48:00;;;;;;;9.13;6.00;;;;;;;;;;4922299;29;20507;-81
2022/04/30 09:56:08;;;;;;;9.95;6.15;;;;;;;;;;4939595;29;20038;-82
2022/04/30 09:58:40;;;;;;;8.50;5.72;;;;;;;;;;4922282;29;20111;-85
2022/04/30 10:01:07;;;;;;;9.93;6.10;;;;;;;;;;4939117;29;22543;-82
2022/04/30 10:03:34;;;;;;;9.18;6.07;;;;;;;;;;4939560;29;20078;-83
2022/04/30 10:06:01;;;;;;;12.18;6.28;;;;;;;;;;4938085;29;20436;-85
2022/04/30 10:08:28;;;;;;;10.13;6.53;;;;;;;;;;4939307;29;20060;-82
2022/04/30 10:11:00;;;;;;;9.30;6.35;;;;;;;;;;4937999;29;20083;-84
2022/04/30 10:13:32;;;;;;;9.10;5.80;;;;;;;;;;4938254;29;20098;-86
2022/04/30 10:16:00;;;;;;;10.52;5.47;;;;;;;;;;4938614;29;20263;-82
2022/04/30 10:18:35;;;;;;;7.68;5.00;;;;;;;;;;4938286;29;20035;-83
2022/04/30 10:21:06;;;;;;;8.68;5.22;;;;;;;;;;4938223;29;20048;-87
2022/04/30 10:23:32;;;;;;;8.85;4.90;;;;;;;;;;4938442;29;20389;-84
2022/04/30 10:26:07;;;;;;;9.23;4.95;;;;;;;;;;4939221;29;20028;-83
2022/04/30 10:28:33;;;;;;;9.57;5.22;;;;;;;;;;4937987;29;20559;-85
2022/04/30 10:31:03;;;;;;;8.10;4.82;;;;;;;;;;4938479;29;20023;-81
2022/04/30 10:33:30;;;;;;;9.30;5.15;;;;;;;;;;4938274;29;20024;-91
2022/04/30 10:36:06;;;;;;;9.15;5.65;;;;;;;;;;4937765;29;20544;-84
2022/04/30 10:38:32;;;;;;;5.95;4.28;;;;;;;;;;4938096;29;20063;-90
2022/04/30 10:41:00;;;;;;;11.38;4.05;;;;;;;;;;4938072;29;20047;-90
2022/04/30 10:43:31;;;;;;;6.93;3.72;;;;;;;;;;4937576;29;20412;-83
2022/04/30 10:45:58;;;;;;;6.10;4.22;;;;;;;;;;4937501;29;20030;-84
2022/04/30 10:48:24;;;;;;;9.40;4.68;;;;;;;;;;4937336;29;20036;-83
2022/04/30 10:51:01;;;;;;;7.45;4.25;;;;;;;;;;4936586;29;20028;-83
2022/04/30 10:53:28;;;;;;;7.78;4.47;;;;;;;;;;4936978;29;20544;-81
2022/04/30 10:55:55;;;;;;;6.60;3.70;;;;;;;;;;4936895;29;20362;-84
2022/04/30 10:58:25;;;;;;;7.93;4.50;;;;;;;;;;4937376;29;20032;-83
2022/04/30 11:00:51;;;;;;;8.05;3.67;;;;;;;;;;4937383;29;20087;-85
2022/04/30 11:03:17;;;;;;;8.77;4.18;;;;;;;;;;4937567;29;20046;-89
2022/04/30 11:05:49;;;;;;;6.43;3.58;;;;;;;;;;4938712;29;20031;-93
2022/04/30 11:08:15;;;;;;;6.68;3.20;;;;;;;;;;4937209;29;20031;-86
2022/04/30 11:10:51;;;;;;;6.90;3.50;;;;;;;;;;4937062;29;20032;-90
2022/04/30 11:13:17;;;;;;;8.15;3.60;;;;;;;;;;4936996;29;20087;-82
2022/04/30 11:15:43;;;;;;;8.52;3.67;;;;;;;;;;4936980;29;20036;-82
2022/04/30 11:18:10;;;;;;;7.80;3.65;;;;;;;;;;4938060;29;20023;-82
2022/04/30 11:20:36;;;;;;;9.50;3.55;;;;;;;;;;4937613;29;20036;-77
2022/04/30 11:23:02;;;;;;;7.63;4.20;;;;;;;;;;4937010;29;20115;-87
2022/04/30 11:25:39;;;;;;;7.63;3.80;;;;;;;;;;4937708;29;20027;-85
2022/04/30 11:28:09;;;;;;;7.50;3.97;;;;;;;;;;4936762;29;20034;-80
2022/04/30 11:30:36;;;;;;;9.13;4.28;;;;;;;;;;4936664;29;20030;-81
2022/04/30 11:33:03;;;;;;;8.63;3.75;;;;;;;;;;4937731;29;20024;-79
2022/04/30 11:35:29;;;;;;;7.15;3.75;;;;;;;;;;4936527;29;20099;-79
2022/04/30 11:37:55;;;;;;;8.57;3.30;;;;;;;;;;4936468;29;20032;-80
2022/04/30 11:40:22;;;;;;;5.07;2.83;;;;;;;;;;4937389;29;20077;-79
2022/04/30 11:42:58;;;;;;;5.72;3.45;;;;;;;;;;4937646;29;20024;-82
2022/04/30 11:45:25;;;;;;;6.53;3.30;;;;;;;;;;4936357;29;20065;-79
2022/04/30 11:47:51;;;;;;;6.43;3.20;;;;;;;;;;4936190;29;20404;-86
2022/04/30 11:50:18;;;;;;;6.35;2.85;;;;;;;;;;4936639;29;20051;-79
2022/04/30 11:52:44;;;;;;;6.90;3.30;;;;;;;;;;4936099;29;20083;-84
2022/04/30 11:55:10;;;;;;;6.60;3.40;;;;;;;;;;4937335;29;20066;-76
2022/04/30 11:57:41;;;;;;;8.48;4.38;;;;;;;;;;4936273;29;20119;-78
2022/04/30 12:00:08;;;;;;;9.77;4.20;;;;;;;;;;4935929;29;20522;-80
2022/04/30 12:02:34;;;;;;;11.65;4.93;;;;;;;;;;4942141;28;20059;-76
2022/04/30 12:05:04;;;;;;;7.10;4.28;;;;;;;;;;4938037;29;20437;-93
2022/04/30 12:07:37;;;;;;;11.00;4.18;;;;;;;;;;4952437;29;20030;-90
2022/04/30 12:10:14;;;;;;;12.55;3.40;;;;;;;;;;4951981;29;20115;-79
2022/04/30 12:12:40;;;;;;;7.93;3.65;;;;;;;;;;4952279;29;20024;-80
2022/04/30 12:15:16;;;;;;;9.55;4.07;;;;;;;;;;4937356;29;20028;-85
2022/04/30 12:17:42;;;;;;;6.72;4.43;;;;;;;;;;4951871;29;20039;-79
2022/04/30 12:25:47;;;;;;;6.65;3.75;;;;;;;;;;4936990;29;20031;-79
2022/04/30 12:28:13;;;;;;;8.23;4.55;;;;;;;;;;4951274;29;20087;-78
2022/04/30 12:30:50;;;;;;;6.75;3.75;;;;;;;;;;4936719;29;20087;-78
2022/04/30 12:33:16;;;;;;;9.05;3.35;;;;;;;;;;4951450;29;20063;-78
2022/04/30 12:35:44;;;;;;;6.97;4.07;;;;;;;;;;4951303;29;20031;-79
2022/04/30 12:38:14;;;;;;;9.75;4.03;;;;;;;;;;4936668;29;20031;-79
2022/04/30 12:40:44;;;;;;;8.23;3.60;;;;;;;;;;4951416;29;20126;-81
2022/04/30 12:43:12;;;;;;;7.20;3.80;;;;;;;;;;4937393;29;20555;-77
2022/04/30 12:45:39;;;;;;;6.47;3.70;;;;;;;;;;4953379;29;20327;-86
2022/04/30 12:48:05;;;;;;;10.15;4.40;;;;;;;;;;4953682;29;20032;-80
2022/04/30 12:50:32;;;;;;;9.32;3.83;;;;;;;;;;4951077;29;20489;-79
2022/04/30 12:52:59;;;;;;;7.65;4.50;;;;;;;;;;4950948;29;20028;-79
2022/04/30 12:55:25;;;;;;;18.50;7.78;;;;;;;;;;4951161;29;20062;-81
2022/04/30 12:57:52;;;;;;;12.68;4.63;;;;;;;;;;4951947;29;20469;-90
2022/04/30 13:00:18;;;;;;;8.27;4.32;;;;;;;;;;4952165;29;20036;-86
2022/04/30 13:02:46;;;;;;;13.50;4.60;;;;;;;;;;4952423;29;20056;-89
2022/04/30 13:05:13;;;;;;;9.05;5.13;;;;;;;;;;4951924;29;20151;-88
2022/04/30 13:07:41;;;;;;;9.30;4.60;;;;;;;;;;4951723;29;20469;-85
2022/04/30 13:15:38;;;;;;;9.18;4.00;;;;;;;;;;4936003;29;20397;-89
2022/04/30 13:18:05;;;;;;;12.90;4.55;;;;;;;;;;4951702;29;20032;-89
2022/04/30 13:20:31;;;;;;;7.40;3.53;;;;;;;;;;4952091;29;20481;-89
2022/04/30 13:22:57;;;;;;;9.32;3.50;;;;;;;;;;4951870;29;20492;-83
2022/04/30 13:25:28;;;;;;;6.95;3.65;;;;;;;;;;4951711;29;20023;-86
2022/04/30 13:27:55;;;;;;;9.90;4.65;;;;;;;;;;4951683;29;20369;-91
2022/04/30 13:30:22;;;;;;;13.30;4.57;;;;;;;;;;4951673;29;20039;-89
2022/04/30 13:32:48;;;;;;;8.35;3.97;;;;;;;;;;4951850;29;20086;-89
2022/04/30 13:35:15;;;;;;;8.77;3.70;;;;;;;;;;4951877;29;20047;-89
2022/04/30 13:37:42;;;;;;;7.70;4.20;;;;;;;;;;4958620;29;20028;-88
2022/04/30 13:40:11;;;;;;;8.00;3.47;;;;;;;;;;4952099;29;20511;-87
2022/04/30 13:42:38;;;;;;;5.82;3.42;;;;;;;;;;4951629;29;20059;-90
2022/04/30 13:45:04;;;;;;;9.98;5.25;;;;;;;;;;4951581;29;20142;-88
2022/04/30 13:47:31;;;;;;;4.80;3.05;;;;;;;;;;4951666;29;20027;-89
2022/04/30 13:49:58;;;;;;;11.50;7.22;;;;;;;;;;4951782;29;20024;-89
2022/04/30 13:52:24;;;;;;;31.60;17.85;;;;;;;;;;4951752;29;20039;-88
2022/04/30 13:54:50;;;;;;;7.65;4.05;;;;;;;;;;4951631;29;20111;-86
2022/04/30 13:57:16;;;;;;;9.15;4.10;;;;;;;;;;4951474;29;20031;-90
2022/04/30 13:59:43;;;;;;;16.58;9.07;;;;;;;;;;4951399;29;20515;-90
2022/04/30 14:02:12;;;;;;;8.70;4.07;;;;;;;;;;4951461;29;20071;-89
2022/04/30 14:04:38;;;;;;;9.73;3.67;;;;;;;;;;4953210;29;20091;-86
2022/04/30 14:07:05;;;;;;;6.03;2.67;;;;;;;;;;4951509;29;20444;-84
2022/04/30 14:09:31;;;;;;;5.35;2.88;;;;;;;;;;4951423;29;20028;-84
2022/04/30 14:11:57;;;;;;;8.02;3.80;;;;;;;;;;4952000;29;20171;-87
2022/04/30 14:19:53;;;;;;;12.95;5.10;;;;;;;;;;4936593;29;20047;-86
2022/04/30 14:22:20;;;;;;;6.55;3.85;;;;;;;;;;4951250;29;20028;-86
2022/04/30 14:24:47;;;;;;;7.13;3.50;;;;;;;;;;4951305;29;20040;-87
2022/04/30 14:27:13;;;;;;;6.30;3.35;;;;;;;;;;4939159;29;20102;-88
2022/04/30 14:29:42;;;;;;;10.10;3.17;;;;;;;;;;4954800;29;20473;-89
2022/04/30 14:32:08;;;;;;;7.70;3.40;;;;;;;;;;4956067;29;20032;-85
2022/04/30 14:34:34;;;;;;;9.38;3.53;;;;;;;;;;4954734;29;20038;-88
2022/04/30 14:37:00;;;;;;;4.82;2.80;;;;;;;;;;4954926;29;20035;-90
2022/04/30 14:39:26;;;;;;;6.40;2.63;;;;;;;;;;4954669;29;20043;-87
2022/04/30 14:41:53;;;;;;;5.70;3.38;;;;;;;;;;4954936;29;20024;-86
2022/04/30 14:44:19;;;;;;;5.70;2.97;;;;;;;;;;4954717;29;20039;-88
2022/04/30 14:46:45;;;;;;;7.05;3.42;;;;;;;;;;4954418;29;20389;-90
2022/04/30 14:49:12;;;;;;;6.10;3.10;;;;;;;;;;4954862;29;20038;-90
2022/04/30 14:51:38;;;;;;;6.80;3.20;;;;;;;;;;4954161;29;20083;-87
2022/04/30 14:54:05;;;;;;;3.90;2.50;;;;;;;;;;4954451;29;20397;-87
2022/04/30 14:56:31;;;;;;;6.38;2.85;;;;;;;;;;4956254;29;20032;-88
2022/04/30 14:59:00;;;;;;;4.90;2.90;;;;;;;;;;4954138;29;20035;-87
2022/04/30 15:01:30;;;;;;;5.03;2.67;;;;;;;;;;4952013;29;20138;-92
2022/04/30 15:03:56;;;;;;;7.25;2.63;;;;;;;;;;4922274;29;20496;-89
2022/04/30 15:06:22;;;;;;;6.35;2.90;;;;;;;;;;4922692;29;20038;-90
2022/04/30 15:08:48;;;;;;;4.50;2.33;;;;;;;;;;4922149;29;20023;-88
2022/04/30 15:11:16;;;;;;;5.47;2.65;;;;;;;;;;4922146;29;20453;-88
2022/04/30 15:13:42;;;;;;;7.47;3.22;;;;;;;;;;4913268;29;20088;-85
2022/04/30 15:16:08;;;;;;;7.55;3.47;;;;;;;;;;4906681;29;20068;-86
2022/04/30 15:18:34;;;;;;;5.32;3.40;;;;;;;;;;4909040;29;20020;-86
2022/04/30 15:21:00;;;;;;;5.93;3.25;;;;;;;;;;4918783;29;20120;-85
2022/04/30 15:23:26;;;;;;;10.57;4.00;;;;;;;;;;4918775;29;20028;-86
2022/04/30 15:25:53;;;;;;;6.47;3.80;;;;;;;;;;4918588;29;20028;-87